Eikamaru No.2 — JD3056 — position and weather

sailwx.info

Track history (hours):
 
Tides and Currents Weather Stations Pressure Air Temp Water Temp Dewpoint Dewpoint Depression Visibility Wind Speed Wind Dir Waves Ship Positions

Eikamaru No.2

Last reported at 2016-Jul-25 07:20 UTC. Time now 2016-Jul-26 06:32 UTC.
Position N 34°37' E 134°58'.

Length 60 m; draft 3.3 m.

Type: Tanker. MMSI: 431001342.

Date/timePositionNaut miles runAvg speedWind from/ knotsBaromVisibWave heightAir tempDewpointWater temp
2016-Jul-25 07:20N 34°37' E 134°58'810.1
2016-Jul-25 06:33N 34°36' E 135°08'1211.7
2016-Jul-25 05:32N 34°38' E 135°22'4 3.8
2016-Jul-25 04:32N 34°40' E 135°25'0 0.0
2016-Jul-25 03:33N 34°40' E 135°25'0 0.0
2016-Jul-25 02:33N 34°40' E 135°25'0 0.0
2016-Jul-25 01:33N 34°40' E 135°25'0 0.0
2016-Jul-25 00:33N 34°40' E 135°25'0 0.0
2016-Jul-24 23:33N 34°40' E 135°25'0 0.0
2016-Jul-24 22:33N 34°40' E 135°25'1 0.8
2016-Jul-24 21:33N 34°40' E 135°25'2 2.5
2016-Jul-24 20:33N 34°39' E 135°22'0 0.0
2016-Jul-24 19:33N 34°39' E 135°22'0 0.0
2016-Jul-24 18:33N 34°39' E 135°22'0 0.0
2016-Jul-24 17:33N 34°39' E 135°22'0 0.0
2016-Jul-24 16:33N 34°39' E 135°22'0 0.0
2016-Jul-24 15:32N 34°39' E 135°22'0 0.0
2016-Jul-24 14:33N 34°39' E 135°22'0 0.0
2016-Jul-24 13:33N 34°39' E 135°22'0 0.0
2016-Jul-24 12:33N 34°39' E 135°22'0 0.0
2016-Jul-24 11:33N 34°39' E 135°22'0 0.0
2016-Jul-24 10:33N 34°39' E 135°22'5 5.1
2016-Jul-24 09:33N 34°35' E 135°18'1211.7
2016-Jul-24 08:32N 34°26' E 135°10'1210.9
2016-Jul-24 07:28N 34°15' E 135°03'1112.3
2016-Jul-24 06:33N 34°04' E 135°02'23910.2
2016-Jul-23 07:08N 35°08' E 139°42'711.7
2016-Jul-23 06:33N 35°14' E 139°46'17 8.7
2016-Jul-23 04:34N 35°32' E 139°46'0 0.0
2016-Jul-23 03:33N 35°32' E 139°46'0 0.0
2016-Jul-23 02:33N 35°32' E 139°46'0 0.0
2016-Jul-23 01:33N 35°32' E 139°46'0 0.0
2016-Jul-23 00:33N 35°32' E 139°46'0 0.0
2016-Jul-22 23:33N 35°32' E 139°46'4 3.6
2016-Jul-22 22:33N 35°29' E 139°49'0 0.0
2016-Jul-22 21:33N 35°29' E 139°49'0 0.0
2016-Jul-22 20:33N 35°29' E 139°49'0 0.0
2016-Jul-22 19:33N 35°29' E 139°49'0 0.0
2016-Jul-22 18:33N 35°29' E 139°49'0 0.0
2016-Jul-22 17:33N 35°29' E 139°49'0 0.0
2016-Jul-22 16:33N 35°29' E 139°49'0 0.0
2016-Jul-22 15:33N 35°29' E 139°49'0 0.0
2016-Jul-22 14:33N 35°29' E 139°49'0 0.0
2016-Jul-22 13:33N 35°29' E 139°49'0 0.0
2016-Jul-22 12:33N 35°29' E 139°49'0 0.0
2016-Jul-22 11:33N 35°29' E 139°49'0 0.0
2016-Jul-22 10:33N 35°29' E 139°49'0 0.0
2016-Jul-22 09:33N 35°29' E 139°49'0 0.0
2016-Jul-22 08:33N 35°29' E 139°49'0 0.0
2016-Jul-22 07:33N 35°29' E 139°49'4 1.8
2016-Jul-22 05:33N 35°32' E 139°46'0 0.0
2016-Jul-22 04:33N 35°32' E 139°46'0 0.0
2016-Jul-22 03:33N 35°32' E 139°46'1 1.0
2016-Jul-22 02:33N 35°31' E 139°46'0 0.0
2016-Jul-22 01:33N 35°31' E 139°46'0 0.0
2016-Jul-22 00:33N 35°31' E 139°46'0 0.3
2016-Jul-21 23:33N 35°31' E 139°46'3 2.7
2016-Jul-21 22:33N 35°29' E 139°49'0 0.0
2016-Jul-21 21:33N 35°29' E 139°49'0 0.1
2016-Jul-21 20:33N 35°29' E 139°49'0 0.0
2016-Jul-21 19:33N 35°29' E 139°49'0 0.0
2016-Jul-21 18:33N 35°29' E 139°49'0 0.0
2016-Jul-21 17:33N 35°29' E 139°49'0 0.0
2016-Jul-21 16:33N 35°29' E 139°49'0 0.1
2016-Jul-21 15:33N 35°29' E 139°49'0 0.0
2016-Jul-21 14:33N 35°29' E 139°49'0 0.0
2016-Jul-21 13:33N 35°29' E 139°49'0 0.0
2016-Jul-21 12:33N 35°29' E 139°49'0 0.0
2016-Jul-21 11:33N 35°29' E 139°49'0 0.0
2016-Jul-21 10:33N 35°29' E 139°49'5 4.6
2016-Jul-21 09:33N 35°29' E 139°55'4 3.7
2016-Jul-21 08:33N 35°27' E 139°58'0 0.0
2016-Jul-21 07:33N 35°27' E 139°58'0 0.0
2016-Jul-21 06:33N 35°27' E 139°58'0 0.0
2016-Jul-21 05:33N 35°27' E 139°58'4 4.0
2016-Jul-21 04:33N 35°30' E 140°02'0 0.3
2016-Jul-21 03:33N 35°30' E 140°02'0 0.0
2016-Jul-21 02:33N 35°30' E 140°02'0 0.0
2016-Jul-21 01:34N 35°30' E 140°02'0 0.0
2016-Jul-21 00:33N 35°30' E 140°02'1 1.2
2016-Jul-20 23:33N 35°31' E 140°01'0 0.0
2016-Jul-20 22:33N 35°31' E 140°01'0 0.0
2016-Jul-20 21:33N 35°31' E 140°01'0 0.0
2016-Jul-20 20:33N 35°31' E 140°01'0 0.0
2016-Jul-20 19:31N 35°31' E 140°01'0 0.0
2016-Jul-20 18:33N 35°31' E 140°01'0 0.0
2016-Jul-20 17:33N 35°31' E 140°01'0 0.0
2016-Jul-20 16:33N 35°31' E 140°01'0 0.0
2016-Jul-20 15:32N 35°31' E 140°01'0 0.0
2016-Jul-20 14:33N 35°31' E 140°01'0 0.0
2016-Jul-20 13:33N 35°31' E 140°01'0 0.0
2016-Jul-20 12:33N 35°31' E 140°01'9 9.1
2016-Jul-20 11:33N 35°40' E 139°58'2 1.6
2016-Jul-20 10:33N 35°41' E 139°57'0 0.0
2016-Jul-20 09:33N 35°41' E 139°57'0 0.0
2016-Jul-20 08:33N 35°41' E 139°57'0 0.0
2016-Jul-20 07:33N 35°41' E 139°57'3 3.5
2016-Jul-20 06:34N 35°38' E 139°59'1211.7
2016-Jul-20 05:33N 35°29' E 139°48'9 9.1
2016-Jul-20 04:33N 35°23' E 139°41'0 0.0
2016-Jul-20 03:33N 35°23' E 139°41'0 0.1
2016-Jul-20 02:33N 35°23' E 139°41'0 0.1
2016-Jul-20 01:33N 35°22' E 139°41'0 0.0
2016-Jul-20 00:33N 35°22' E 139°41'0 0.0
2016-Jul-19 23:33N 35°22' E 139°41'1 0.7
2016-Jul-19 22:33N 35°22' E 139°40'0 0.0
2016-Jul-19 21:33N 35°22' E 139°40'0 0.0
2016-Jul-19 20:33N 35°22' E 139°40'0 0.0
2016-Jul-19 19:33N 35°22' E 139°40'0 0.0
2016-Jul-19 18:33N 35°22' E 139°40'0 0.1
2016-Jul-19 17:33N 35°22' E 139°40'0 0.0
2016-Jul-19 16:33N 35°22' E 139°40'0 0.0
2016-Jul-19 15:33N 35°22' E 139°40'0 0.0
2016-Jul-19 14:33N 35°22' E 139°40'0 0.0
2016-Jul-19 13:33N 35°22' E 139°40'0 0.0
2016-Jul-19 12:33N 35°22' E 139°40'0 0.0
2016-Jul-19 11:33N 35°22' E 139°40'0 0.1
2016-Jul-19 10:33N 35°22' E 139°40'7 6.5
2016-Jul-19 09:33N 35°27' E 139°46'10 9.9
2016-Jul-19 08:33N 35°27' E 139°58'0 0.1
2016-Jul-19 07:33N 35°27' E 139°58'3 0.9
2016-Jul-19 04:33N 35°30' E 139°58'3 2.9
2016-Jul-19 03:33N 35°30' E 140°02'0 0.0
2016-Jul-19 02:33N 35°30' E 140°02'0 0.0
2016-Jul-19 01:33N 35°30' E 140°02'0 0.0
2016-Jul-19 00:33N 35°30' E 140°02'1 1.2
2016-Jul-18 23:33N 35°31' E 140°01'8 7.6
2016-Jul-18 22:33N 35°38' E 139°59'3 2.5
2016-Jul-18 21:33N 35°41' E 139°59'0 0.0
2016-Jul-18 20:33N 35°41' E 139°59'0 0.0
2016-Jul-18 19:33N 35°41' E 139°59'0 0.0
2016-Jul-18 18:33N 35°41' E 139°59'0 0.0
2016-Jul-18 17:33N 35°41' E 139°59'0 0.0
2016-Jul-18 16:33N 35°41' E 139°59'0 0.0
2016-Jul-18 15:33N 35°41' E 139°59'0 0.0
2016-Jul-18 14:32N 35°41' E 139°59'0 0.0
2016-Jul-18 13:32N 35°41' E 139°59'0 0.0
2016-Jul-18 12:33N 35°41' E 139°59'0 0.0
2016-Jul-18 11:33N 35°41' E 139°59'0 0.0
2016-Jul-18 10:33N 35°41' E 139°59'0 0.0
2016-Jul-18 09:33N 35°41' E 139°59'0 0.0
2016-Jul-18 08:33N 35°41' E 139°59'0 0.0
2016-Jul-18 07:33N 35°41' E 139°59'0 0.0
2016-Jul-18 06:33N 35°41' E 139°59'0 0.0
2016-Jul-18 05:33N 35°41' E 139°59'0 0.0
2016-Jul-18 04:33N 35°41' E 139°59'0 0.0
2016-Jul-18 03:33N 35°41' E 139°59'0 0.0
2016-Jul-18 02:33N 35°41' E 139°59'0 0.0
2016-Jul-18 01:33N 35°41' E 139°59'0 0.0
2016-Jul-18 00:33N 35°41' E 139°59'0 0.0
2016-Jul-17 23:33N 35°41' E 139°59'0 0.0
2016-Jul-17 22:33N 35°41' E 139°59'0 0.0
2016-Jul-17 21:33N 35°41' E 139°59'0 0.0
2016-Jul-17 20:33N 35°41' E 139°59'0 0.0
2016-Jul-17 19:33N 35°41' E 139°59'0 0.0
2016-Jul-17 18:33N 35°41' E 139°59'0 0.0
2016-Jul-17 17:33N 35°41' E 139°59'0 0.0
2016-Jul-17 16:33N 35°41' E 139°59'0 0.0
2016-Jul-17 15:33N 35°41' E 139°59'0 0.0
2016-Jul-17 14:33N 35°41' E 139°59'0 0.0
2016-Jul-17 13:33N 35°41' E 139°59'0 0.0
2016-Jul-17 12:32N 35°41' E 139°59'0 0.0
2016-Jul-17 11:33N 35°41' E 139°59'0 0.0
2016-Jul-17 10:33N 35°41' E 139°59'0 0.0
2016-Jul-17 09:33N 35°41' E 139°59'0 0.0
2016-Jul-17 08:33N 35°41' E 139°59'0 0.0
2016-Jul-17 07:33N 35°41' E 139°59'2 1.6
2016-Jul-17 06:33N 35°39' E 139°59'14 6.8
2016-Jul-17 04:33N 35°32' E 139°45'0 0.0
2016-Jul-17 03:33N 35°32' E 139°45'0 0.0
2016-Jul-17 02:33N 35°32' E 139°45'0 0.0
2016-Jul-17 01:33N 35°32' E 139°45'0 0.0
2016-Jul-17 00:33N 35°32' E 139°45'0 0.0
2016-Jul-16 23:33N 35°32' E 139°45'4 4.0
2016-Jul-16 22:33N 35°28' E 139°48'7 7.4
2016-Jul-16 21:33N 35°22' E 139°45'10 9.8
2016-Jul-16 20:33N 35°12' E 139°47'9 6.0
2016-Jul-16 19:05N 35°05' E 139°40'248 9.6
2016-Jul-15 17:20N 34°05' E 134°48'  
Track history (hours):
 
Tides and Currents Weather Stations Pressure Air Temp Water Temp Dewpoint Dewpoint Depression Visibility Wind Speed Wind Dir Waves Ship Positions

Eikamaru No.2

Last reported at 2016-Jul-25 07:20 UTC. Time now 2016-Jul-26 06:32 UTC.
Position N 34°37' E 134°58'.

Length 60 m; draft 3.3 m.

Type: Tanker. MMSI: 431001342.

Date/timePositionNaut miles runAvg speedWind from/ knotsBaromVisibWave heightAir tempDewpointWater temp
2016-Jul-25 07:20N 34°37' E 134°58'810.1
2016-Jul-25 06:33N 34°36' E 135°08'1211.7
2016-Jul-25 05:32N 34°38' E 135°22'4 3.8
2016-Jul-25 04:32N 34°40' E 135°25'0 0.0
2016-Jul-25 03:33N 34°40' E 135°25'0 0.0
2016-Jul-25 02:33N 34°40' E 135°25'0 0.0
2016-Jul-25 01:33N 34°40' E 135°25'0 0.0
2016-Jul-25 00:33N 34°40' E 135°25'0 0.0
2016-Jul-24 23:33N 34°40' E 135°25'0 0.0
2016-Jul-24 22:33N 34°40' E 135°25'1 0.8
2016-Jul-24 21:33N 34°40' E 135°25'2 2.5
2016-Jul-24 20:33N 34°39' E 135°22'0 0.0
2016-Jul-24 19:33N 34°39' E 135°22'0 0.0
2016-Jul-24 18:33N 34°39' E 135°22'0 0.0
2016-Jul-24 17:33N 34°39' E 135°22'0 0.0
2016-Jul-24 16:33N 34°39' E 135°22'0 0.0
2016-Jul-24 15:32N 34°39' E 135°22'0 0.0
2016-Jul-24 14:33N 34°39' E 135°22'0 0.0
2016-Jul-24 13:33N 34°39' E 135°22'0 0.0
2016-Jul-24 12:33N 34°39' E 135°22'0 0.0
2016-Jul-24 11:33N 34°39' E 135°22'0 0.0
2016-Jul-24 10:33N 34°39' E 135°22'5 5.1
2016-Jul-24 09:33N 34°35' E 135°18'1211.7
2016-Jul-24 08:32N 34°26' E 135°10'1210.9
2016-Jul-24 07:28N 34°15' E 135°03'1112.3
2016-Jul-24 06:33N 34°04' E 135°02'23910.2
2016-Jul-23 07:08N 35°08' E 139°42'711.7
2016-Jul-23 06:33N 35°14' E 139°46'17 8.7
2016-Jul-23 04:34N 35°32' E 139°46'0 0.0
2016-Jul-23 03:33N 35°32' E 139°46'0 0.0
2016-Jul-23 02:33N 35°32' E 139°46'0 0.0
2016-Jul-23 01:33N 35°32' E 139°46'0 0.0
2016-Jul-23 00:33N 35°32' E 139°46'0 0.0
2016-Jul-22 23:33N 35°32' E 139°46'4 3.6
2016-Jul-22 22:33N 35°29' E 139°49'0 0.0
2016-Jul-22 21:33N 35°29' E 139°49'0 0.0
2016-Jul-22 20:33N 35°29' E 139°49'0 0.0
2016-Jul-22 19:33N 35°29' E 139°49'0 0.0
2016-Jul-22 18:33N 35°29' E 139°49'0 0.0
2016-Jul-22 17:33N 35°29' E 139°49'0 0.0
2016-Jul-22 16:33N 35°29' E 139°49'0 0.0
2016-Jul-22 15:33N 35°29' E 139°49'0 0.0
2016-Jul-22 14:33N 35°29' E 139°49'0 0.0
2016-Jul-22 13:33N 35°29' E 139°49'0 0.0
2016-Jul-22 12:33N 35°29' E 139°49'0 0.0
2016-Jul-22 11:33N 35°29' E 139°49'0 0.0
2016-Jul-22 10:33N 35°29' E 139°49'0 0.0
2016-Jul-22 09:33N 35°29' E 139°49'0 0.0
2016-Jul-22 08:33N 35°29' E 139°49'0 0.0
2016-Jul-22 07:33N 35°29' E 139°49'4 1.8
2016-Jul-22 05:33N 35°32' E 139°46'0 0.0
2016-Jul-22 04:33N 35°32' E 139°46'0 0.0
2016-Jul-22 03:33N 35°32' E 139°46'1 1.0
2016-Jul-22 02:33N 35°31' E 139°46'0 0.0
2016-Jul-22 01:33N 35°31' E 139°46'0 0.0
2016-Jul-22 00:33N 35°31' E 139°46'0 0.3
2016-Jul-21 23:33N 35°31' E 139°46'3 2.7
2016-Jul-21 22:33N 35°29' E 139°49'0 0.0
2016-Jul-21 21:33N 35°29' E 139°49'0 0.1
2016-Jul-21 20:33N 35°29' E 139°49'0 0.0
2016-Jul-21 19:33N 35°29' E 139°49'0 0.0
2016-Jul-21 18:33N 35°29' E 139°49'0 0.0
2016-Jul-21 17:33N 35°29' E 139°49'0 0.0
2016-Jul-21 16:33N 35°29' E 139°49'0 0.1
2016-Jul-21 15:33N 35°29' E 139°49'0 0.0
2016-Jul-21 14:33N 35°29' E 139°49'0 0.0
2016-Jul-21 13:33N 35°29' E 139°49'0 0.0
2016-Jul-21 12:33N 35°29' E 139°49'0 0.0
2016-Jul-21 11:33N 35°29' E 139°49'0 0.0
2016-Jul-21 10:33N 35°29' E 139°49'5 4.6
2016-Jul-21 09:33N 35°29' E 139°55'4 3.7
2016-Jul-21 08:33N 35°27' E 139°58'0 0.0
2016-Jul-21 07:33N 35°27' E 139°58'0 0.0
2016-Jul-21 06:33N 35°27' E 139°58'0 0.0
2016-Jul-21 05:33N 35°27' E 139°58'4 4.0
2016-Jul-21 04:33N 35°30' E 140°02'0 0.3
2016-Jul-21 03:33N 35°30' E 140°02'0 0.0
2016-Jul-21 02:33N 35°30' E 140°02'0 0.0
2016-Jul-21 01:34N 35°30' E 140°02'0 0.0
2016-Jul-21 00:33N 35°30' E 140°02'1 1.2
2016-Jul-20 23:33N 35°31' E 140°01'0 0.0
2016-Jul-20 22:33N 35°31' E 140°01'0 0.0
2016-Jul-20 21:33N 35°31' E 140°01'0 0.0
2016-Jul-20 20:33N 35°31' E 140°01'0 0.0
2016-Jul-20 19:31N 35°31' E 140°01'0 0.0
2016-Jul-20 18:33N 35°31' E 140°01'0 0.0
2016-Jul-20 17:33N 35°31' E 140°01'0 0.0
2016-Jul-20 16:33N 35°31' E 140°01'0 0.0
2016-Jul-20 15:32N 35°31' E 140°01'0 0.0
2016-Jul-20 14:33N 35°31' E 140°01'0 0.0
2016-Jul-20 13:33N 35°31' E 140°01'0 0.0
2016-Jul-20 12:33N 35°31' E 140°01'9 9.1
2016-Jul-20 11:33N 35°40' E 139°58'2 1.6
2016-Jul-20 10:33N 35°41' E 139°57'0 0.0
2016-Jul-20 09:33N 35°41' E 139°57'0 0.0
2016-Jul-20 08:33N 35°41' E 139°57'0 0.0
2016-Jul-20 07:33N 35°41' E 139°57'3 3.5
2016-Jul-20 06:34N 35°38' E 139°59'1211.7
2016-Jul-20 05:33N 35°29' E 139°48'9 9.1
2016-Jul-20 04:33N 35°23' E 139°41'0 0.0
2016-Jul-20 03:33N 35°23' E 139°41'0 0.1
2016-Jul-20 02:33N 35°23' E 139°41'0 0.1
2016-Jul-20 01:33N 35°22' E 139°41'0 0.0
2016-Jul-20 00:33N 35°22' E 139°41'0 0.0
2016-Jul-19 23:33N 35°22' E 139°41'1 0.7
2016-Jul-19 22:33N 35°22' E 139°40'0 0.0
2016-Jul-19 21:33N 35°22' E 139°40'0 0.0
2016-Jul-19 20:33N 35°22' E 139°40'0 0.0
2016-Jul-19 19:33N 35°22' E 139°40'0 0.0
2016-Jul-19 18:33N 35°22' E 139°40'0 0.1
2016-Jul-19 17:33N 35°22' E 139°40'0 0.0
2016-Jul-19 16:33N 35°22' E 139°40'0 0.0
2016-Jul-19 15:33N 35°22' E 139°40'0 0.0
2016-Jul-19 14:33N 35°22' E 139°40'0 0.0
2016-Jul-19 13:33N 35°22' E 139°40'0 0.0
2016-Jul-19 12:33N 35°22' E 139°40'0 0.0
2016-Jul-19 11:33N 35°22' E 139°40'0 0.1
2016-Jul-19 10:33N 35°22' E 139°40'7 6.5
2016-Jul-19 09:33N 35°27' E 139°46'10 9.9
2016-Jul-19 08:33N 35°27' E 139°58'0 0.1
2016-Jul-19 07:33N 35°27' E 139°58'3 0.9
2016-Jul-19 04:33N 35°30' E 139°58'3 2.9
2016-Jul-19 03:33N 35°30' E 140°02'0 0.0
2016-Jul-19 02:33N 35°30' E 140°02'0 0.0
2016-Jul-19 01:33N 35°30' E 140°02'0 0.0
2016-Jul-19 00:33N 35°30' E 140°02'1 1.2
2016-Jul-18 23:33N 35°31' E 140°01'8 7.6
2016-Jul-18 22:33N 35°38' E 139°59'3 2.5
2016-Jul-18 21:33N 35°41' E 139°59'0 0.0
2016-Jul-18 20:33N 35°41' E 139°59'0 0.0
2016-Jul-18 19:33N 35°41' E 139°59'0 0.0
2016-Jul-18 18:33N 35°41' E 139°59'0 0.0
2016-Jul-18 17:33N 35°41' E 139°59'0 0.0
2016-Jul-18 16:33N 35°41' E 139°59'0 0.0
2016-Jul-18 15:33N 35°41' E 139°59'0 0.0
2016-Jul-18 14:32N 35°41' E 139°59'0 0.0
2016-Jul-18 13:32N 35°41' E 139°59'0 0.0
2016-Jul-18 12:33N 35°41' E 139°59'0 0.0
2016-Jul-18 11:33N 35°41' E 139°59'0 0.0
2016-Jul-18 10:33N 35°41' E 139°59'0 0.0
2016-Jul-18 09:33N 35°41' E 139°59'0 0.0
2016-Jul-18 08:33N 35°41' E 139°59'0 0.0
2016-Jul-18 07:33N 35°41' E 139°59'0 0.0
2016-Jul-18 06:33N 35°41' E 139°59'0 0.0
2016-Jul-18 05:33N 35°41' E 139°59'0 0.0
2016-Jul-18 04:33N 35°41' E 139°59'0 0.0
2016-Jul-18 03:33N 35°41' E 139°59'0 0.0
2016-Jul-18 02:33N 35°41' E 139°59'0 0.0
2016-Jul-18 01:33N 35°41' E 139°59'0 0.0
2016-Jul-18 00:33N 35°41' E 139°59'0 0.0
2016-Jul-17 23:33N 35°41' E 139°59'0 0.0
2016-Jul-17 22:33N 35°41' E 139°59'0 0.0
2016-Jul-17 21:33N 35°41' E 139°59'0 0.0
2016-Jul-17 20:33N 35°41' E 139°59'0 0.0
2016-Jul-17 19:33N 35°41' E 139°59'0 0.0
2016-Jul-17 18:33N 35°41' E 139°59'0 0.0
2016-Jul-17 17:33N 35°41' E 139°59'0 0.0
2016-Jul-17 16:33N 35°41' E 139°59'0 0.0
2016-Jul-17 15:33N 35°41' E 139°59'0 0.0
2016-Jul-17 14:33N 35°41' E 139°59'0 0.0
2016-Jul-17 13:33N 35°41' E 139°59'0 0.0
2016-Jul-17 12:32N 35°41' E 139°59'0 0.0
2016-Jul-17 11:33N 35°41' E 139°59'0 0.0
2016-Jul-17 10:33N 35°41' E 139°59'0 0.0
2016-Jul-17 09:33N 35°41' E 139°59'0 0.0
2016-Jul-17 08:33N 35°41' E 139°59'0 0.0
2016-Jul-17 07:33N 35°41' E 139°59'2 1.6
2016-Jul-17 06:33N 35°39' E 139°59'14 6.8
2016-Jul-17 04:33N 35°32' E 139°45'0 0.0
2016-Jul-17 03:33N 35°32' E 139°45'0 0.0
2016-Jul-17 02:33N 35°32' E 139°45'0 0.0
2016-Jul-17 01:33N 35°32' E 139°45'0 0.0
2016-Jul-17 00:33N 35°32' E 139°45'0 0.0
2016-Jul-16 23:33N 35°32' E 139°45'4 4.0
2016-Jul-16 22:33N 35°28' E 139°48'7 7.4
2016-Jul-16 21:33N 35°22' E 139°45'10 9.8
2016-Jul-16 20:33N 35°12' E 139°47'9 6.0
2016-Jul-16 19:05N 35°05' E 139°40'248 9.6
2016-Jul-15 17:20N 34°05' E 134°48'  

Dump ship's entire track history